Time;durP1;ratioP1;P1;durP2;ratioP2;P2;SDS_P1;SDS_P2;PMS_P1;PMS_P2;Temp;Humidity;BMP_temperature;BMP_pressure;BME280_temperature;BME280_humidity;BME280_pressure;Samples;Min_cycle;Max_cycle;Signal;HPM_P1;HPM_P2
2021/07/28 00:00:59;;;;;;;7.20;6.60;;;24.90;39.50;;;;;;10457438;28;20225;-72
2021/07/28 00:06:02;;;;;;;6.03;5.53;;;24.80;40.70;;;;;;10459820;28;20232;-72
2021/07/28 00:11:12;;;;;;;6.57;5.97;;;24.70;40.00;;;;;;10458957;28;20224;-72
2021/07/28 00:16:17;;;;;;;5.33;4.93;;;24.70;41.30;;;;;;10458175;28;20704;-73
2021/07/28 00:26:41;;;;;;;5.10;4.70;;;24.50;40.50;;;;;;10459875;28;20224;-73
2021/07/28 00:31:45;;;;;;;5.50;5.10;;;24.50;40.50;;;;;;10464876;28;20232;-73
2021/07/28 00:36:49;;;;;;;5.70;5.20;;;24.50;41.20;;;;;;10457233;28;20587;-73
2021/07/28 00:41:52;;;;;;;6.00;5.43;;;24.40;40.40;;;;;;10462499;28;20255;-79
2021/07/28 00:46:56;;;;;;;5.73;5.23;;;24.40;40.50;;;;;;10481727;28;20220;-78
2021/07/28 00:52:03;;;;;;;6.63;5.93;;;24.40;41.90;;;;;;10476140;28;20228;-78
2021/07/28 00:57:07;;;;;;;5.63;4.90;;;24.40;41.60;;;;;;10473059;28;20222;-73
2021/07/28 01:02:11;;;;;;;6.87;5.00;;;24.40;41.50;;;;;;10457759;28;20237;-73
2021/07/28 01:07:15;;;;;;;6.20;5.13;;;24.40;41.20;;;;;;10462525;28;20235;-69
2021/07/28 01:12:18;;;;;;;5.37;4.87;;;24.30;40.30;;;;;;10465483;28;20232;-78
2021/07/28 01:17:23;;;;;;;5.40;4.90;;;24.20;40.60;;;;;;10477735;28;20224;-77
2021/07/28 01:22:27;;;;;;;4.77;4.37;;;24.10;41.50;;;;;;10467265;28;20239;-78
2021/07/28 01:27:31;;;;;;;4.63;4.23;;;24.10;41.00;;;;;;10466731;28;20235;-78
2021/07/28 01:32:36;;;;;;;5.13;4.73;;;24.10;41.90;;;;;;10471820;28;20228;-77
2021/07/28 01:37:41;;;;;;;5.80;5.30;;;24.00;42.00;;;;;;10473461;28;20222;-78
2021/07/28 01:42:47;;;;;;;8.37;4.77;;;24.10;41.70;;;;;;10476585;28;20838;-78
2021/07/28 01:47:50;;;;;;;5.70;5.20;;;24.10;42.10;;;;;;10459976;28;20224;-73
2021/07/28 01:52:54;;;;;;;4.83;4.47;;;24.10;41.10;;;;;;10453624;28;20228;-73
2021/07/28 01:57:59;;;;;;;5.50;5.00;;;24.10;41.00;;;;;;10458489;28;20228;-68
2021/07/28 02:03:05;;;;;;;4.93;4.53;;;24.10;41.80;;;;;;10455111;28;20223;-69
2021/07/28 02:08:11;;;;;;;4.33;3.93;;;24.10;41.10;;;;;;10457596;28;20446;-69
2021/07/28 02:13:17;;;;;;;5.10;4.70;;;24.00;41.60;;;;;;10459285;28;20240;-68
2021/07/28 02:18:20;;;;;;;4.80;4.33;;;24.00;42.40;;;;;;10460278;28;20220;-68
2021/07/28 02:23:23;;;;;;;4.80;4.40;;;24.00;41.80;;;;;;10456331;28;20231;-73
2021/07/28 02:28:29;;;;;;;6.30;4.73;;;24.00;42.00;;;;;;10458536;28;20231;-73
2021/07/28 02:33:32;;;;;;;5.43;4.73;;;24.00;42.40;;;;;;10470161;28;20619;-72
2021/07/28 02:38:36;;;;;;;5.30;4.80;;;24.00;41.70;;;;;;10466712;28;20223;-72
2021/07/28 02:43:40;;;;;;;5.93;4.70;;;23.90;41.70;;;;;;10468965;28;20229;-72
2021/07/28 02:48:44;;;;;;;5.07;4.57;;;23.90;42.40;;;;;;10474641;28;20660;-77
2021/07/28 02:53:47;;;;;;;6.00;5.07;;;23.80;41.90;;;;;;10484182;28;20229;-77
2021/07/28 02:58:51;;;;;;;5.10;4.70;;;23.80;42.10;;;;;;10483095;28;20708;-68
2021/07/28 03:03:54;;;;;;;6.93;4.57;;;23.70;42.80;;;;;;10469765;28;20254;-67
2021/07/28 03:08:58;;;;;;;5.70;5.10;;;23.60;42.20;;;;;;10466704;28;20595;-68
2021/07/28 03:14:02;;;;;;;5.20;4.70;;;23.50;42.30;;;;;;10466120;28;20224;-68
2021/07/28 03:19:06;;;;;;;5.03;4.63;;;23.50;43.00;;;;;;10467980;28;20233;-69
2021/07/28 03:24:09;;;;;;;5.57;4.97;;;23.40;42.70;;;;;;10469284;28;20252;-68
2021/07/28 03:29:13;;;;;;;5.47;4.97;;;23.30;42.90;;;;;;10472164;28;20220;-68
2021/07/28 03:34:17;;;;;;;5.80;5.20;;;23.30;43.60;;;;;;10469496;28;20221;-68
2021/07/28 03:39:20;;;;;;;5.10;4.60;;;23.40;43.10;;;;;;10469946;28;20220;-68
2021/07/28 03:44:25;;;;;;;5.50;4.87;;;23.30;43.10;;;;;;10467458;28;20244;-78
2021/07/28 03:49:28;;;;;;;5.27;4.77;;;23.30;43.70;;;;;;10468978;28;20252;-78
2021/07/28 03:54:31;;;;;;;5.50;5.00;;;23.30;43.20;;;;;;10471282;28;20712;-73
2021/07/28 03:59:36;;;;;;;5.03;4.50;;;23.20;43.30;;;;;;10465572;28;20221;-73
2021/07/28 04:04:39;;;;;;;4.70;4.30;;;23.20;43.80;;;;;;10460254;28;20236;-78
2021/07/28 04:09:42;;;;;;;5.70;5.07;;;23.20;43.50;;;;;;10482933;28;20232;-78
2021/07/28 04:14:46;;;;;;;4.77;4.47;;;23.20;44.20;;;;;;10472963;28;20796;-77
2021/07/28 04:19:50;;;;;;;5.63;4.77;;;23.10;44.00;;;;;;10473302;28;20224;-73
2021/07/28 04:24:53;;;;;;;5.20;4.80;;;23.10;43.80;;;;;;10459349;28;20299;-77
2021/07/28 04:29:58;;;;;;;4.90;4.47;;;23.00;43.70;;;;;;10469361;28;20223;-77
2021/07/28 04:35:01;;;;;;;4.13;3.83;;;22.90;44.50;;;;;;10464999;28;20339;-77
2021/07/28 04:40:06;;;;;;;5.87;4.70;;;22.90;44.00;;;;;;10470966;28;20620;-77
2021/07/28 04:45:11;;;;;;;5.10;4.70;;;22.90;44.40;;;;;;10463168;28;20236;-68
2021/07/28 04:50:15;;;;;;;5.73;4.57;;;22.80;44.90;;;;;;10457798;28;20243;-68
2021/07/28 04:55:18;;;;;;;5.00;4.60;;;22.70;44.50;;;;;;10459003;28;20225;-68
2021/07/28 05:00:23;;;;;;;6.30;4.40;;;22.70;44.80;;;;;;10456262;28;20240;-68
2021/07/28 05:05:26;;;;;;;5.00;4.60;;;22.70;45.50;;;;;;10457537;28;20243;-68
2021/07/28 05:10:30;;;;;;;5.23;4.73;;;22.60;45.00;;;;;;10452869;28;20237;-68
2021/07/28 05:15:34;;;;;;;5.43;4.40;;;22.60;45.90;;;;;;10458095;28;20228;-68
2021/07/28 05:20:38;;;;;;;5.23;4.73;;;22.70;46.00;;;;;;10448692;28;20220;-68
2021/07/28 05:25:41;;;;;;;4.80;4.40;;;22.80;45.60;;;;;;10451744;28;20228;-67
2021/07/28 05:30:46;;;;;;;5.30;4.23;;;22.80;45.50;;;;;;10457983;28;20232;-68
2021/07/28 05:35:49;;;;;;;7.83;4.37;;;22.90;46.10;;;;;;10455095;28;20232;-77
2021/07/28 05:40:55;;;;;;;4.87;4.47;;;23.00;45.50;;;;;;10456680;28;20216;-76
2021/07/28 05:45:59;;;;;;;5.37;4.87;;;23.10;45.50;;;;;;10471599;28;20219;-78
2021/07/28 05:51:03;;;;;;;5.00;4.60;;;23.20;46.10;;;;;;10457784;28;20297;-71
2021/07/28 05:56:06;;;;;;;5.10;4.60;;;23.20;45.50;;;;;;10457701;28;20232;-71
2021/07/28 06:01:11;;;;;;;7.53;4.77;;;23.20;45.70;;;;;;10455099;28;20228;-71
2021/07/28 06:06:14;;;;;;;5.83;4.60;;;23.20;46.30;;;;;;10455575;28;20312;-71
2021/07/28 06:11:17;;;;;;;4.90;4.50;;;23.20;45.70;;;;;;10460226;28;20257;-71
2021/07/28 06:16:22;;;;;;;5.80;5.20;;;23.20;46.00;;;;;;10450849;28;20216;-72
2021/07/28 06:21:25;;;;;;;6.00;5.40;;;23.30;46.60;;;;;;10454790;28;20335;-71
2021/07/28 06:26:29;;;;;;;5.50;5.00;;;23.20;46.00;;;;;;10451691;28;20720;-71
2021/07/28 06:31:33;;;;;;;5.80;5.30;;;23.30;46.30;;;;;;10453901;28;20731;-72
2021/07/28 06:36:37;;;;;;;5.50;5.00;;;23.30;47.00;;;;;;10453435;28;20702;-71
2021/07/28 06:41:40;;;;;;;5.83;5.20;;;23.30;46.70;;;;;;10461774;28;20224;-71
2021/07/28 06:46:45;;;;;;;5.40;5.00;;;23.30;46.60;;;;;;10452167;28;20225;-71
2021/07/28 06:51:48;;;;;;;6.53;6.03;;;23.40;47.40;;;;;;10448282;28;20225;-71
2021/07/28 06:56:51;;;;;;;7.13;6.47;;;23.50;46.20;;;;;;10447782;28;20224;-71
2021/07/28 07:01:56;;;;;;;7.17;6.57;;;23.50;46.00;;;;;;10452388;28;20224;-71
2021/07/28 07:06:59;;;;;;;7.70;6.90;;;23.50;45.80;;;;;;10448909;28;20745;-71
2021/07/28 07:12:03;;;;;;;7.27;6.57;;;23.60;45.70;;;;;;10448941;28;20717;-72
2021/07/28 07:17:08;;;;;;;7.40;6.80;;;23.60;45.90;;;;;;10456062;28;20853;-71
2021/07/28 07:22:11;;;;;;;7.37;6.60;;;23.70;46.10;;;;;;10466936;28;20232;-72
2021/07/28 07:27:14;;;;;;;7.67;6.97;;;23.70;45.80;;;;;;10462101;28;20217;-71
2021/07/28 07:32:22;;;;;;;6.43;5.93;;;23.80;46.00;;;;;;10461269;28;20268;-71
2021/07/28 07:37:25;;;;;;;8.27;7.57;;;23.80;45.90;;;;;;10461293;28;20229;-78
2021/07/28 07:42:30;;;;;;;7.97;7.27;;;23.90;45.70;;;;;;10475798;28;20233;-78
2021/07/28 07:47:35;;;;;;;7.87;7.20;;;24.00;45.80;;;;;;10469110;28;20225;-78
2021/07/28 07:52:38;;;;;;;8.23;7.43;;;24.00;46.00;;;;;;10468340;28;20230;-78
2021/07/28 07:57:41;;;;;;;7.87;7.17;;;24.10;45.80;;;;;;10459534;28;20242;-78
2021/07/28 08:02:46;;;;;;;8.47;7.57;;;24.10;45.50;;;;;;10468100;28;20225;-78
2021/07/28 08:07:49;;;;;;;8.53;7.67;;;24.20;45.10;;;;;;10474346;28;20247;-78
2021/07/28 08:12:53;;;;;;;9.40;7.97;;;24.30;44.90;;;;;;10465182;28;21084;-78
2021/07/28 08:17:57;;;;;;;10.93;8.97;;;24.30;44.90;;;;;;10461299;28;20231;-71
2021/07/28 08:23:00;;;;;;;8.80;8.00;;;24.30;44.70;;;;;;10455957;28;20239;-71
2021/07/28 08:28:04;;;;;;;9.50;8.70;;;24.30;44.30;;;;;;10458374;28;20849;-71
2021/07/28 08:33:08;;;;;;;9.83;9.03;;;24.30;44.90;;;;;;10450786;28;20232;-71
2021/07/28 08:38:11;;;;;;;9.90;9.10;;;24.30;44.60;;;;;;10458104;28;21103;-71
2021/07/28 08:43:15;;;;;;;10.13;9.33;;;24.30;44.30;;;;;;10454951;28;20221;-72
2021/07/28 08:48:22;;;;;;;11.03;10.03;;;24.30;44.00;;;;;;10460385;28;20224;-71
2021/07/28 08:53:25;;;;;;;10.00;9.10;;;24.30;44.30;;;;;;10456138;28;20233;-71
2021/07/28 08:58:29;;;;;;;10.70;9.60;;;24.30;44.30;;;;;;10453325;28;20228;-71
2021/07/28 09:03:34;;;;;;;10.30;9.27;;;24.30;44.30;;;;;;10452545;28;20225;-71
2021/07/28 09:08:39;;;;;;;10.03;8.87;;;24.20;44.30;;;;;;10454798;28;20234;-71
2021/07/28 09:13:43;;;;;;;9.23;8.47;;;24.20;44.10;;;;;;10457022;28;20726;-71
2021/07/28 09:18:50;;;;;;;8.90;8.13;;;24.10;44.30;;;;;;10454146;28;20221;-77
2021/07/28 09:23:58;;;;;;;9.43;8.63;;;24.10;44.40;;;;;;10472664;28;20225;-77
2021/07/28 09:29:07;;;;;;;9.67;8.77;;;24.10;44.50;;;;;;10456229;28;20235;-78
2021/07/28 09:34:32;;;;;;;9.70;8.80;;;24.10;44.80;;;;;;10458167;28;20232;-77
2021/07/28 09:39:38;;;;;;;8.90;8.10;;;24.10;44.60;;;;;;10464625;28;20599;-77
2021/07/28 09:44:42;;;;;;;9.00;8.27;;;24.10;44.50;;;;;;10452174;28;20229;-79
2021/07/28 09:49:49;;;;;;;9.43;8.53;;;24.20;44.80;;;;;;10471026;28;20231;-79
2021/07/28 09:54:53;;;;;;;9.80;9.00;;;24.20;45.10;;;;;;10469548;28;20232;-79
2021/07/28 10:00:03;;;;;;;9.33;8.43;;;24.10;44.80;;;;;;10466674;28;20224;-78
2021/07/28 10:05:11;;;;;;;8.80;8.00;;;24.10;45.20;;;;;;10465078;28;20220;-79
2021/07/28 10:10:16;;;;;;;8.77;7.87;;;24.10;45.40;;;;;;10464691;28;20225;-80
2021/07/28 10:15:20;;;;;;;9.73;8.83;;;24.10;45.30;;;;;;10461384;28;20239;-79
2021/07/28 10:20:27;;;;;;;9.47;8.67;;;23.90;45.40;;;;;;10463922;28;20719;-80
2021/07/28 10:25:31;;;;;;;9.10;8.40;;;23.80;46.40;;;;;;10461945;28;20227;-79
2021/07/28 10:30:34;;;;;;;8.53;7.73;;;23.80;46.10;;;;;;10457775;28;20223;-79
2021/07/28 10:35:50;;;;;;;9.63;8.70;;;23.80;47.10;;;;;;10457991;28;20231;-79
2021/07/28 10:40:59;;;;;;;8.27;7.57;;;23.80;47.10;;;;;;10468076;28;20230;-79
2021/07/28 10:46:03;;;;;;;9.53;8.63;;;23.70;46.30;;;;;;10462108;28;20232;-79
2021/07/28 10:51:07;;;;;;;9.50;8.60;;;23.80;46.10;;;;;;10469995;28;20226;-79
2021/07/28 10:56:11;;;;;;;8.87;8.07;;;23.70;46.80;;;;;;10473006;28;20227;-79
2021/07/28 11:01:14;;;;;;;8.10;7.47;;;23.70;46.20;;;;;;10471091;28;20692;-79
2021/07/28 11:06:25;;;;;;;8.53;7.73;;;23.70;46.50;;;;;;10475361;28;20225;-78
2021/07/28 11:11:30;;;;;;;7.67;6.97;;;23.60;46.50;;;;;;10469777;28;20766;-78
2021/07/28 11:16:34;;;;;;;7.73;7.13;;;23.70;46.50;;;;;;10468450;28;20224;-78
2021/07/28 11:21:39;;;;;;;7.70;7.00;;;23.70;46.80;;;;;;10473484;28;20217;-78
2021/07/28 11:26:45;;;;;;;7.57;6.97;;;23.70;47.20;;;;;;10468750;28;20661;-78
2021/07/28 11:31:49;;;;;;;6.90;6.30;;;23.70;46.30;;;;;;10466443;28;20243;-77
2021/07/28 11:37:02;;;;;;;6.37;5.87;;;23.70;45.90;;;;;;10470830;28;21036;-78
2021/07/28 11:42:08;;;;;;;6.20;5.73;;;23.60;46.10;;;;;;10474626;28;20310;-77
2021/07/28 11:47:11;;;;;;;5.90;5.47;;;23.60;45.10;;;;;;10464594;28;20308;-78
2021/07/28 11:52:16;;;;;;;5.50;5.00;;;23.60;45.60;;;;;;10462402;28;20225;-77
2021/07/28 11:57:19;;;;;;;6.40;5.80;;;23.60;45.80;;;;;;10466758;28;20230;-77
2021/07/28 12:02:22;;;;;;;5.77;5.27;;;23.80;45.80;;;;;;10465445;28;20231;-77
2021/07/28 12:07:27;;;;;;;6.00;5.40;;;23.70;45.50;;;;;;10463280;28;20236;-77
2021/07/28 12:12:31;;;;;;;5.90;5.23;;;23.70;45.60;;;;;;10468108;28;20232;-77
2021/07/28 12:17:35;;;;;;;5.57;5.07;;;23.80;45.60;;;;;;10468017;28;20235;-77
2021/07/28 12:22:41;;;;;;;5.63;5.13;;;23.80;45.20;;;;;;10465954;28;20233;-77
2021/07/28 12:27:59;;;;;;;4.87;4.53;;;23.80;45.30;;;;;;10471768;28;20271;-77
2021/07/28 12:33:05;;;;;;;5.60;5.10;;;23.70;44.90;;;;;;10466172;28;20224;-75
2021/07/28 12:38:12;;;;;;;5.50;5.10;;;23.80;45.00;;;;;;10467808;28;20228;-77
2021/07/28 12:43:16;;;;;;;5.53;5.03;;;23.80;45.00;;;;;;10464890;28;20562;-77
2021/07/28 12:48:19;;;;;;;5.90;5.40;;;23.90;45.30;;;;;;10464773;28;20239;-77
2021/07/28 12:53:25;;;;;;;6.07;5.57;;;23.90;45.30;;;;;;10467412;28;20247;-78
2021/07/28 12:58:28;;;;;;;6.50;6.00;;;24.00;45.20;;;;;;10466835;28;20235;-77
2021/07/28 13:03:34;;;;;;;5.93;5.43;;;24.00;44.80;;;;;;10466124;28;20235;-77
2021/07/28 13:08:39;;;;;;;6.30;5.80;;;23.90;45.00;;;;;;10458955;28;20217;-77
2021/07/28 13:13:43;;;;;;;6.70;6.10;;;23.90;45.50;;;;;;10458956;28;20308;-74
2021/07/28 13:18:46;;;;;;;5.87;5.47;;;23.90;45.60;;;;;;10456841;28;20239;-74
2021/07/28 13:23:50;;;;;;;6.20;5.63;;;23.90;45.40;;;;;;10459485;28;20744;-74
2021/07/28 13:28:53;;;;;;;5.80;5.30;;;24.00;45.90;;;;;;10456818;28;20228;-74
2021/07/28 13:33:57;;;;;;;5.10;4.70;;;24.00;44.80;;;;;;10456400;28;20228;-68
2021/07/28 13:39:03;;;;;;;4.63;4.30;;;24.00;45.80;;;;;;10456535;28;20224;-68
2021/07/28 13:44:07;;;;;;;5.00;4.37;;;24.10;45.10;;;;;;10452409;28;20819;-68
2021/07/28 13:49:10;;;;;;;4.23;3.93;;;24.10;45.00;;;;;;10452107;28;20539;-69
2021/07/28 13:54:15;;;;;;;3.63;3.33;;;24.10;44.10;;;;;;10446153;28;20232;-68
2021/07/28 13:59:18;;;;;;;4.20;3.90;;;24.10;44.60;;;;;;10454037;28;20220;-69
2021/07/28 14:04:21;;;;;;;3.80;3.50;;;24.10;44.10;;;;;;10458512;28;22108;-68
2021/07/28 14:09:26;;;;;;;3.70;3.40;;;24.10;44.20;;;;;;10455477;28;20232;-68
2021/07/28 14:14:31;;;;;;;3.17;2.97;;;24.00;43.90;;;;;;10457518;28;20230;-74
2021/07/28 14:19:35;;;;;;;3.63;3.33;;;24.00;43.90;;;;;;10453111;28;20232;-74
2021/07/28 14:24:40;;;;;;;3.40;3.10;;;23.90;43.80;;;;;;10458718;28;20228;-74
2021/07/28 14:29:43;;;;;;;3.60;3.17;;;24.00;44.20;;;;;;10453861;28;20649;-74
2021/07/28 14:34:46;;;;;;;3.20;3.00;;;24.00;43.90;;;;;;10457360;28;20229;-74
2021/07/28 14:39:51;;;;;;;3.83;3.50;;;24.10;43.90;;;;;;10450826;28;20729;-73
2021/07/28 14:44:54;;;;;;;3.80;3.50;;;24.10;44.10;;;;;;10444386;28;20236;-74
2021/07/28 14:49:57;;;;;;;3.40;3.20;;;24.10;44.10;;;;;;10444849;28;20239;-74
2021/07/28 14:55:02;;;;;;;3.93;3.53;;;24.10;43.90;;;;;;10450208;28;20724;-74
2021/07/28 15:00:07;;;;;;;3.30;3.00;;;24.10;43.70;;;;;;10447567;28;20671;-74
2021/07/28 15:05:11;;;;;;;3.43;3.10;;;24.20;43.20;;;;;;10452520;28;20228;-74
2021/07/28 15:10:16;;;;;;;3.30;3.10;;;24.20;43.20;;;;;;10446412;28;20233;-74
2021/07/28 15:15:19;;;;;;;3.67;3.37;;;24.20;43.30;;;;;;10447592;28;20232;-75
2021/07/28 15:20:22;;;;;;;3.83;3.53;;;24.30;43.80;;;;;;10448803;28;20242;-75
2021/07/28 15:25:27;;;;;;;3.70;3.43;;;24.30;43.70;;;;;;10447796;28;20232;-75
2021/07/28 15:30:31;;;;;;;3.30;3.10;;;24.50;43.10;;;;;;10446942;28;20236;-75
2021/07/28 15:35:35;;;;;;;3.60;3.30;;;24.60;43.00;;;;;;10450114;28;20232;-74
2021/07/28 15:40:42;;;;;;;3.67;3.43;;;24.60;42.80;;;;;;10460630;28;20247;-74
2021/07/28 15:45:46;;;;;;;3.60;3.33;;;24.70;42.30;;;;;;10458161;28;20240;-75
2021/07/28 15:50:51;;;;;;;3.77;3.47;;;24.70;42.40;;;;;;10458919;28;20232;-75
2021/07/28 15:55:55;;;;;;;3.97;3.73;;;24.90;41.70;;;;;;10456060;28;20237;-74
2021/07/28 16:00:58;;;;;;;3.60;3.40;;;25.00;40.90;;;;;;10460880;28;20225;-74
2021/07/28 16:06:03;;;;;;;3.57;3.27;;;25.10;41.50;;;;;;10455855;28;20216;-73
2021/07/28 16:11:08;;;;;;;3.97;3.67;;;25.20;41.00;;;;;;10454868;28;20221;-74
2021/07/28 16:16:11;;;;;;;3.67;3.37;;;25.20;41.00;;;;;;10458197;28;20227;-74
2021/07/28 16:21:18;;;;;;;3.43;3.13;;;25.30;41.10;;;;;;10449870;28;20225;-74
2021/07/28 16:26:24;;;;;;;3.70;3.40;;;25.30;40.20;;;;;;10458458;28;20232;-74
2021/07/28 16:31:27;;;;;;;3.40;3.10;;;25.40;40.00;;;;;;10455403;28;20224;-74
2021/07/28 16:36:32;;;;;;;3.63;3.37;;;25.40;40.50;;;;;;10451060;28;21000;-75
2021/07/28 16:41:36;;;;;;;3.00;2.80;;;25.40;40.00;;;;;;10458980;28;20399;-74
2021/07/28 16:46:39;;;;;;;3.20;2.90;;;25.40;39.90;;;;;;10453704;28;20224;-75
2021/07/28 16:51:43;;;;;;;3.20;3.00;;;25.40;40.10;;;;;;10448540;28;20299;-74
2021/07/28 16:56:47;;;;;;;3.50;3.20;;;25.40;40.00;;;;;;10449903;28;20811;-75
2021/07/28 17:01:51;;;;;;;3.43;3.13;;;25.40;39.50;;;;;;10455236;28;20568;-74
2021/07/28 17:06:57;;;;;;;3.13;2.93;;;25.40;39.80;;;;;;10455421;28;20605;-74
2021/07/28 17:12:06;;;;;;;2.83;2.60;;;25.50;39.90;;;;;;10455043;28;20324;-74
2021/07/28 17:17:09;;;;;;;2.73;2.53;;;25.50;38.70;;;;;;10454906;28;21117;-74
2021/07/28 17:22:13;;;;;;;2.90;2.70;;;25.60;39.60;;;;;;10453574;28;20239;-72
2021/07/28 17:27:18;;;;;;;3.10;2.90;;;25.60;39.90;;;;;;10453839;28;20589;-72
2021/07/28 17:32:21;;;;;;;3.73;2.63;;;25.70;39.30;;;;;;10456414;28;20235;-71
2021/07/28 17:37:43;;;;;;;2.97;2.77;;;25.80;39.50;;;;;;10450348;28;20716;-71
2021/07/28 17:42:48;;;;;;;3.10;2.90;;;25.80;38.80;;;;;;10457234;28;21269;-71
2021/07/28 17:47:51;;;;;;;3.13;2.93;;;25.70;39.20;;;;;;10446685;28;20229;-71
2021/07/28 17:52:54;;;;;;;3.63;3.10;;;25.70;39.00;;;;;;10442752;28;20228;-71
2021/07/28 17:57:59;;;;;;;2.83;2.63;;;25.70;39.10;;;;;;10446243;28;20217;-71
2021/07/28 18:03:03;;;;;;;2.90;2.70;;;25.70;38.60;;;;;;10442399;28;20236;-71
2021/07/28 18:08:08;;;;;;;2.80;2.60;;;25.60;38.80;;;;;;10446023;28;20232;-71
2021/07/28 18:13:13;;;;;;;2.60;2.40;;;25.60;38.30;;;;;;10449030;28;20572;-71
2021/07/28 18:18:16;;;;;;;2.90;2.70;;;25.40;38.00;;;;;;10452268;28;20234;-71
2021/07/28 18:23:20;;;;;;;2.80;2.50;;;25.20;39.30;;;;;;10450731;28;20676;-71
2021/07/28 18:28:24;;;;;;;2.50;2.30;;;25.10;38.70;;;;;;10451584;28;20225;-70
2021/07/28 18:33:35;;;;;;;2.77;2.57;;;25.00;38.80;;;;;;10455428;28;20235;-71
2021/07/28 18:38:40;;;;;;;2.20;2.10;;;24.90;39.10;;;;;;10452867;28;20228;-71
2021/07/28 18:43:46;;;;;;;2.70;2.50;;;24.90;39.20;;;;;;10436029;28;20243;-70
2021/07/28 18:48:49;;;;;;;2.70;2.50;;;24.90;39.50;;;;;;10457757;28;20232;-70
2021/07/28 18:53:52;;;;;;;2.30;2.20;;;24.90;39.60;;;;;;10456329;28;20241;-70
2021/07/28 18:58:57;;;;;;;2.60;2.40;;;24.90;39.60;;;;;;10455942;28;20235;-71
2021/07/28 19:04:01;;;;;;;2.43;2.30;;;24.90;39.10;;;;;;10460456;28;20235;-71
2021/07/28 19:09:04;;;;;;;2.20;2.10;;;24.90;39.40;;;;;;10462954;28;20744;-71
2021/07/28 19:14:11;;;;;;;2.70;2.50;;;24.90;39.50;;;;;;10467577;28;20220;-71
2021/07/28 19:19:15;;;;;;;2.40;2.30;;;24.80;39.30;;;;;;10474129;28;20739;-71
2021/07/28 19:24:18;;;;;;;2.37;2.27;;;24.80;39.60;;;;;;10470364;28;20234;-70
2021/07/28 19:29:23;;;;;;;2.37;2.27;;;24.70;39.60;;;;;;10471798;28;20587;-70
2021/07/28 19:34:26;;;;;;;2.80;2.60;;;24.70;39.50;;;;;;10469697;28;20240;-71
2021/07/28 19:39:29;;;;;;;2.40;2.30;;;24.60;39.40;;;;;;10472623;28;20230;-71
2021/07/28 19:44:34;;;;;;;2.63;2.43;;;24.60;39.40;;;;;;10469595;28;20325;-70
2021/07/28 19:49:37;;;;;;;2.87;2.50;;;24.50;39.30;;;;;;10468641;28;20236;-71
2021/07/28 19:54:40;;;;;;;2.30;2.20;;;24.40;39.20;;;;;;10466018;28;20233;-71
2021/07/28 19:59:48;;;;;;;2.53;2.20;;;24.30;39.30;;;;;;10471630;28;20235;-70
2021/07/28 20:04:53;;;;;;;2.47;2.30;;;24.30;39.40;;;;;;10470237;28;20228;-71
2021/07/28 20:09:57;;;;;;;2.60;2.47;;;24.20;39.40;;;;;;10472270;28;20326;-71
2021/07/28 20:15:01;;;;;;;2.90;2.60;;;24.10;39.40;;;;;;10469604;28;20225;-70
2021/07/28 20:20:06;;;;;;;2.50;2.40;;;24.00;39.70;;;;;;10472321;28;20251;-70
2021/07/28 20:25:11;;;;;;;2.37;2.27;;;23.90;39.50;;;;;;10467234;28;20225;-70
2021/07/28 20:30:16;;;;;;;2.80;2.57;;;23.70;39.80;;;;;;10470257;28;20223;-70
2021/07/28 20:35:20;;;;;;;2.93;2.73;;;23.60;39.70;;;;;;10462908;28;20616;-71
2021/07/28 20:40:23;;;;;;;2.80;2.57;;;23.50;39.60;;;;;;10471970;28;20233;-70
2021/07/28 20:45:28;;;;;;;3.50;3.23;;;23.30;39.40;;;;;;10467324;28;20243;-70
2021/07/28 20:50:31;;;;;;;2.90;2.70;;;23.20;39.30;;;;;;10466640;28;20710;-70
2021/07/28 20:55:35;;;;;;;2.90;2.60;;;22.90;39.10;;;;;;10452266;28;20228;-70
2021/07/28 21:00:39;;;;;;;3.00;2.80;;;22.80;39.50;;;;;;10448737;28;20229;-70
2021/07/28 21:05:43;;;;;;;3.03;2.83;;;22.50;39.90;;;;;;10449797;28;20229;-70
2021/07/28 21:10:47;;;;;;;2.77;2.50;;;22.40;39.90;;;;;;10457743;28;20232;-70
2021/07/28 21:15:52;;;;;;;2.70;2.50;;;22.30;40.30;;;;;;10451225;28;20228;-70
2021/07/28 21:20:57;;;;;;;3.57;2.77;;;22.20;40.40;;;;;;10447794;28;20271;-70
2021/07/28 21:26:00;;;;;;;3.00;2.63;;;22.10;40.30;;;;;;10455130;28;20236;-70
2021/07/28 21:31:06;;;;;;;2.80;2.60;;;22.00;40.40;;;;;;10459505;28;20254;-71
2021/07/28 21:36:11;;;;;;;2.60;2.40;;;21.90;40.90;;;;;;10448687;28;20232;-71
2021/07/28 21:41:15;;;;;;;3.07;2.40;;;21.90;40.70;;;;;;10462370;28;20303;-70
2021/07/28 21:46:22;;;;;;;2.70;2.50;;;21.90;40.70;;;;;;10450686;28;20509;-70
2021/07/28 21:51:38;;;;;;;3.30;2.30;;;21.90;40.90;;;;;;10462063;28;20240;-70
2021/07/28 21:56:45;;;;;;;2.83;2.63;;;21.90;41.00;;;;;;10452387;28;20235;-71
2021/07/28 22:01:52;;;;;;;2.60;2.40;;;21.90;40.90;;;;;;10463139;28;20236;-70
2021/07/28 22:06:57;;;;;;;3.07;2.87;;;21.90;40.90;;;;;;10452809;28;20232;-71
2021/07/28 22:12:01;;;;;;;4.67;3.03;;;21.90;40.90;;;;;;10463129;28;20279;-70
2021/07/28 22:17:06;;;;;;;3.57;2.93;;;21.90;40.80;;;;;;10456904;28;20923;-71
2021/07/28 22:22:09;;;;;;;2.63;2.40;;;21.80;40.90;;;;;;10450125;28;20278;-70
2021/07/28 22:27:13;;;;;;;3.77;2.70;;;21.70;40.50;;;;;;10451968;28;20704;-70
2021/07/28 22:32:17;;;;;;;3.40;3.10;;;21.70;40.60;;;;;;10460698;28;20228;-70
2021/07/28 22:37:20;;;;;;;3.07;2.87;;;21.70;40.80;;;;;;10457200;28;20234;-71
2021/07/28 22:42:23;;;;;;;3.00;2.70;;;21.60;40.70;;;;;;10453443;28;20244;-71
2021/07/28 22:47:31;;;;;;;3.50;3.10;;;21.50;40.60;;;;;;10457265;28;20233;-70
2021/07/28 22:57:56;;;;;;;3.63;3.33;;;21.40;41.00;;;;;;10470507;28;20235;-71
2021/07/28 23:08:22;;;;;;;3.83;2.87;;;21.20;41.30;;;;;;10465670;28;20282;-70
2021/07/28 23:13:25;;;;;;;3.00;2.80;;;21.10;41.20;;;;;;10462347;28;20236;-70
2021/07/28 23:18:30;;;;;;;3.80;2.70;;;21.10;41.30;;;;;;10467388;28;20944;-70
2021/07/28 23:23:33;;;;;;;3.73;2.60;;;21.00;41.60;;;;;;10462201;28;20224;-71
2021/07/28 23:28:37;;;;;;;3.73;3.30;;;21.00;41.30;;;;;;10460937;28;20221;-71
2021/07/28 23:33:41;;;;;;;3.50;2.87;;;20.90;41.10;;;;;;10460326;28;20595;-73
2021/07/28 23:38:47;;;;;;;2.87;2.37;;;20.90;41.30;;;;;;10458642;28;20232;-74
2021/07/28 23:43:50;;;;;;;3.43;2.73;;;20.80;41.50;;;;;;10464358;28;20596;-78
2021/07/28 23:48:57;;;;;;;3.03;2.83;;;20.70;41.30;;;;;;10478104;28;20324;-78
2021/07/28 23:54:00;;;;;;;2.77;2.57;;;20.70;41.80;;;;;;10463633;28;20863;-78
2021/07/28 23:59:04;;;;;;;3.20;2.80;;;20.60;41.70;;;;;;10468353;28;20239;-78
